sensor_id;sensor_type;location;lat;lon;timestamp;P1;durP1;ratioP1;P2;durP2;ratioP2
3307;SDS011;1666;48.898;9.182;2022-09-20T00:01:42;6.05;;;2.42;;
3307;SDS011;1666;48.898;9.182;2022-09-20T00:04:15;4.95;;;2.42;;
3307;SDS011;1666;48.898;9.182;2022-09-20T00:06:44;7.32;;;2.70;;
3307;SDS011;1666;48.898;9.182;2022-09-20T00:09:14;7.55;;;2.70;;
3307;SDS011;1666;48.898;9.182;2022-09-20T00:11:44;4.70;;;2.60;;
3307;SDS011;1666;48.898;9.182;2022-09-20T00:14:14;4.70;;;3.10;;
3307;SDS011;1666;48.898;9.182;2022-09-20T00:16:43;5.97;;;2.75;;
3307;SDS011;1666;48.898;9.182;2022-09-20T00:19:17;6.03;;;2.40;;
3307;SDS011;1666;48.898;9.182;2022-09-20T00:21:48;5.15;;;2.35;;
3307;SDS011;1666;48.898;9.182;2022-09-20T00:24:18;11.07;;;2.45;;
3307;SDS011;1666;48.898;9.182;2022-09-20T00:26:48;8.00;;;2.60;;
3307;SDS011;1666;48.898;9.182;2022-09-20T00:29:18;8.18;;;2.80;;
3307;SDS011;1666;48.898;9.182;2022-09-20T00:31:48;4.40;;;2.13;;
3307;SDS011;1666;48.898;9.182;2022-09-20T00:34:20;6.45;;;2.67;;
3307;SDS011;1666;48.898;9.182;2022-09-20T00:39:32;6.43;;;2.20;;
3307;SDS011;1666;48.898;9.182;2022-09-20T00:42:02;8.15;;;2.20;;
3307;SDS011;1666;48.898;9.182;2022-09-20T00:44:39;6.18;;;2.60;;
3307;SDS011;1666;48.898;9.182;2022-09-20T00:47:18;7.25;;;2.45;;
3307;SDS011;1666;48.898;9.182;2022-09-20T00:49:57;8.68;;;2.47;;
3307;SDS011;1666;48.898;9.182;2022-09-20T00:52:30;6.35;;;2.28;;
3307;SDS011;1666;48.898;9.182;2022-09-20T00:55:00;6.10;;;2.33;;
3307;SDS011;1666;48.898;9.182;2022-09-20T00:57:34;6.80;;;1.80;;
3307;SDS011;1666;48.898;9.182;2022-09-20T01:00:06;3.85;;;2.08;;
3307;SDS011;1666;48.898;9.182;2022-09-20T01:02:40;7.85;;;2.53;;
3307;SDS011;1666;48.898;9.182;2022-09-20T01:05:15;6.43;;;2.50;;
3307;SDS011;1666;48.898;9.182;2022-09-20T01:07:47;6.63;;;2.40;;
3307;SDS011;1666;48.898;9.182;2022-09-20T01:10:19;4.15;;;2.28;;
3307;SDS011;1666;48.898;9.182;2022-09-20T01:12:50;4.43;;;1.90;;
3307;SDS011;1666;48.898;9.182;2022-09-20T01:15:21;6.63;;;2.45;;
3307;SDS011;1666;48.898;9.182;2022-09-20T01:17:53;4.70;;;2.40;;
3307;SDS011;1666;48.898;9.182;2022-09-20T01:20:27;6.60;;;3.53;;
3307;SDS011;1666;48.898;9.182;2022-09-20T01:23:12;4.78;;;2.10;;
3307;SDS011;1666;48.898;9.182;2022-09-20T01:28:45;5.82;;;1.92;;
3307;SDS011;1666;48.898;9.182;2022-09-20T01:31:19;8.35;;;2.28;;
3307;SDS011;1666;48.898;9.182;2022-09-20T01:33:56;12.05;;;2.40;;
3307;SDS011;1666;48.898;9.182;2022-09-20T01:36:30;5.75;;;1.90;;
3307;SDS011;1666;48.898;9.182;2022-09-20T01:39:07;7.78;;;2.15;;
3307;SDS011;1666;48.898;9.182;2022-09-20T01:41:43;5.25;;;1.90;;
3307;SDS011;1666;48.898;9.182;2022-09-20T01:44:20;5.50;;;2.10;;
3307;SDS011;1666;48.898;9.182;2022-09-20T01:46:59;5.95;;;1.80;;
3307;SDS011;1666;48.898;9.182;2022-09-20T01:49:35;4.80;;;2.00;;
3307;SDS011;1666;48.898;9.182;2022-09-20T01:52:16;3.17;;;1.90;;
3307;SDS011;1666;48.898;9.182;2022-09-20T01:55:27;11.93;;;2.30;;
3307;SDS011;1666;48.898;9.182;2022-09-20T02:01:34;8.50;;;2.20;;
3307;SDS011;1666;48.898;9.182;2022-09-20T02:07:36;7.90;;;2.13;;
3307;SDS011;1666;48.898;9.182;2022-09-20T02:10:26;4.43;;;1.88;;
3307;SDS011;1666;48.898;9.182;2022-09-20T02:13:05;10.30;;;2.60;;
3307;SDS011;1666;48.898;9.182;2022-09-20T02:18:52;5.97;;;1.95;;
3307;SDS011;1666;48.898;9.182;2022-09-20T02:21:36;9.05;;;2.47;;
3307;SDS011;1666;48.898;9.182;2022-09-20T02:24:15;6.78;;;1.88;;
3307;SDS011;1666;48.898;9.182;2022-09-20T02:26:55;5.32;;;1.73;;
3307;SDS011;1666;48.898;9.182;2022-09-20T02:29:39;5.75;;;2.03;;
3307;SDS011;1666;48.898;9.182;2022-09-20T02:32:24;6.90;;;2.05;;
3307;SDS011;1666;48.898;9.182;2022-09-20T02:38:04;4.95;;;2.03;;
3307;SDS011;1666;48.898;9.182;2022-09-20T02:40:53;9.00;;;2.35;;
3307;SDS011;1666;48.898;9.182;2022-09-20T02:43:33;6.22;;;2.30;;
3307;SDS011;1666;48.898;9.182;2022-09-20T02:46:09;6.47;;;2.45;;
3307;SDS011;1666;48.898;9.182;2022-09-20T02:48:46;7.00;;;2.25;;
3307;SDS011;1666;48.898;9.182;2022-09-20T02:51:27;4.47;;;2.03;;
3307;SDS011;1666;48.898;9.182;2022-09-20T02:54:05;6.22;;;1.90;;
3307;SDS011;1666;48.898;9.182;2022-09-20T02:56:46;8.95;;;2.35;;
3307;SDS011;1666;48.898;9.182;2022-09-20T02:59:24;7.75;;;2.50;;
3307;SDS011;1666;48.898;9.182;2022-09-20T03:02:03;3.42;;;1.80;;
3307;SDS011;1666;48.898;9.182;2022-09-20T03:04:44;6.45;;;2.10;;
3307;SDS011;1666;48.898;9.182;2022-09-20T03:07:27;7.55;;;2.13;;
3307;SDS011;1666;48.898;9.182;2022-09-20T03:10:06;8.73;;;2.65;;
3307;SDS011;1666;48.898;9.182;2022-09-20T03:12:48;4.03;;;2.10;;
3307;SDS011;1666;48.898;9.182;2022-09-20T03:15:30;5.97;;;1.92;;
3307;SDS011;1666;48.898;9.182;2022-09-20T03:18:09;4.82;;;2.13;;
3307;SDS011;1666;48.898;9.182;2022-09-20T03:20:45;6.05;;;2.55;;
3307;SDS011;1666;48.898;9.182;2022-09-20T03:23:34;11.82;;;3.03;;
3307;SDS011;1666;48.898;9.182;2022-09-20T03:26:17;4.05;;;2.22;;
3307;SDS011;1666;48.898;9.182;2022-09-20T03:29:00;6.40;;;3.00;;
3307;SDS011;1666;48.898;9.182;2022-09-20T03:31:36;6.30;;;2.05;;
3307;SDS011;1666;48.898;9.182;2022-09-20T03:34:15;9.50;;;2.53;;
3307;SDS011;1666;48.898;9.182;2022-09-20T03:37:03;4.70;;;2.28;;
3307;SDS011;1666;48.898;9.182;2022-09-20T03:42:41;13.00;;;2.50;;
3307;SDS011;1666;48.898;9.182;2022-09-20T03:48:20;5.13;;;2.25;;
3307;SDS011;1666;48.898;9.182;2022-09-20T03:51:03;4.38;;;2.13;;
3307;SDS011;1666;48.898;9.182;2022-09-20T03:53:51;4.85;;;2.33;;
3307;SDS011;1666;48.898;9.182;2022-09-20T03:56:48;7.75;;;1.98;;
3307;SDS011;1666;48.898;9.182;2022-09-20T03:59:55;7.38;;;1.90;;
3307;SDS011;1666;48.898;9.182;2022-09-20T04:02:41;5.35;;;2.30;;
3307;SDS011;1666;48.898;9.182;2022-09-20T04:05:25;7.97;;;2.30;;
3307;SDS011;1666;48.898;9.182;2022-09-20T04:08:04;3.53;;;2.03;;
3307;SDS011;1666;48.898;9.182;2022-09-20T04:10:44;5.97;;;2.40;;
3307;SDS011;1666;48.898;9.182;2022-09-20T04:13:33;9.93;;;2.72;;
3307;SDS011;1666;48.898;9.182;2022-09-20T04:16:17;7.22;;;2.33;;
3307;SDS011;1666;48.898;9.182;2022-09-20T04:18:56;10.50;;;3.42;;
3307;SDS011;1666;48.898;9.182;2022-09-20T04:24:03;5.65;;;2.40;;
3307;SDS011;1666;48.898;9.182;2022-09-20T04:26:39;7.95;;;3.17;;
3307;SDS011;1666;48.898;9.182;2022-09-20T04:29:23;20.98;;;2.30;;
3307;SDS011;1666;48.898;9.182;2022-09-20T04:32:00;7.20;;;2.25;;
3307;SDS011;1666;48.898;9.182;2022-09-20T04:34:41;6.50;;;3.05;;
3307;SDS011;1666;48.898;9.182;2022-09-20T04:37:29;7.45;;;2.90;;
3307;SDS011;1666;48.898;9.182;2022-09-20T04:40:08;6.40;;;2.55;;
3307;SDS011;1666;48.898;9.182;2022-09-20T04:43:00;9.23;;;2.85;;
3307;SDS011;1666;48.898;9.182;2022-09-20T04:58:33;8.38;;;2.95;;
3307;SDS011;1666;48.898;9.182;2022-09-20T05:13:13;6.95;;;2.95;;
3307;SDS011;1666;48.898;9.182;2022-09-20T05:15:56;5.07;;;2.67;;
3307;SDS011;1666;48.898;9.182;2022-09-20T05:18:44;5.97;;;2.80;;
3307;SDS011;1666;48.898;9.182;2022-09-20T05:21:46;9.50;;;3.15;;
3307;SDS011;1666;48.898;9.182;2022-09-20T05:24:31;8.48;;;2.80;;
3307;SDS011;1666;48.898;9.182;2022-09-20T05:27:15;6.45;;;3.13;;
3307;SDS011;1666;48.898;9.182;2022-09-20T05:29:55;7.83;;;2.80;;
3307;SDS011;1666;48.898;9.182;2022-09-20T05:32:36;13.85;;;3.67;;
3307;SDS011;1666;48.898;9.182;2022-09-20T05:35:15;7.63;;;3.17;;
3307;SDS011;1666;48.898;9.182;2022-09-20T05:37:54;7.38;;;3.00;;
3307;SDS011;1666;48.898;9.182;2022-09-20T05:40:32;12.75;;;2.85;;
3307;SDS011;1666;48.898;9.182;2022-09-20T05:43:07;9.95;;;2.83;;
3307;SDS011;1666;48.898;9.182;2022-09-20T05:45:46;6.47;;;2.50;;
3307;SDS011;1666;48.898;9.182;2022-09-20T05:48:33;8.18;;;2.95;;
3307;SDS011;1666;48.898;9.182;2022-09-20T05:51:09;7.32;;;2.90;;
3307;SDS011;1666;48.898;9.182;2022-09-20T05:53:59;9.15;;;3.33;;
3307;SDS011;1666;48.898;9.182;2022-09-20T05:56:40;8.43;;;2.95;;
3307;SDS011;1666;48.898;9.182;2022-09-20T05:59:20;11.68;;;3.38;;
3307;SDS011;1666;48.898;9.182;2022-09-20T06:01:58;6.60;;;2.90;;
3307;SDS011;1666;48.898;9.182;2022-09-20T06:04:41;6.15;;;3.00;;
3307;SDS011;1666;48.898;9.182;2022-09-20T06:07:24;10.35;;;3.45;;
3307;SDS011;1666;48.898;9.182;2022-09-20T06:12:58;8.27;;;3.15;;
3307;SDS011;1666;48.898;9.182;2022-09-20T06:15:39;10.85;;;3.58;;
3307;SDS011;1666;48.898;9.182;2022-09-20T06:18:19;9.82;;;2.85;;
3307;SDS011;1666;48.898;9.182;2022-09-20T06:20:57;5.18;;;3.20;;
3307;SDS011;1666;48.898;9.182;2022-09-20T06:23:34;12.65;;;3.10;;
3307;SDS011;1666;48.898;9.182;2022-09-20T06:26:06;9.38;;;3.35;;
3307;SDS011;1666;48.898;9.182;2022-09-20T06:28:39;13.45;;;3.25;;
3307;SDS011;1666;48.898;9.182;2022-09-20T06:31:12;9.43;;;2.92;;
3307;SDS011;1666;48.898;9.182;2022-09-20T06:33:43;8.20;;;2.88;;
3307;SDS011;1666;48.898;9.182;2022-09-20T06:39:05;8.35;;;3.03;;
3307;SDS011;1666;48.898;9.182;2022-09-20T06:41:54;7.40;;;3.55;;
3307;SDS011;1666;48.898;9.182;2022-09-20T06:44:24;7.85;;;3.50;;
3307;SDS011;1666;48.898;9.182;2022-09-20T06:46:53;5.75;;;3.10;;
3307;SDS011;1666;48.898;9.182;2022-09-20T06:49:23;10.52;;;3.95;;
3307;SDS011;1666;48.898;9.182;2022-09-20T06:51:57;8.73;;;3.20;;
3307;SDS011;1666;48.898;9.182;2022-09-20T06:54:27;6.85;;;3.13;;
3307;SDS011;1666;48.898;9.182;2022-09-20T06:56:57;8.20;;;3.25;;
3307;SDS011;1666;48.898;9.182;2022-09-20T06:59:31;10.40;;;3.17;;
3307;SDS011;1666;48.898;9.182;2022-09-20T07:02:01;8.50;;;4.10;;
3307;SDS011;1666;48.898;9.182;2022-09-20T07:04:30;10.55;;;4.43;;
3307;SDS011;1666;48.898;9.182;2022-09-20T07:07:03;8.95;;;3.58;;
3307;SDS011;1666;48.898;9.182;2022-09-20T07:09:35;7.32;;;2.88;;
3307;SDS011;1666;48.898;9.182;2022-09-20T07:12:05;9.30;;;3.78;;
3307;SDS011;1666;48.898;9.182;2022-09-20T07:14:37;5.13;;;3.50;;
3307;SDS011;1666;48.898;9.182;2022-09-20T07:17:08;9.18;;;3.30;;
3307;SDS011;1666;48.898;9.182;2022-09-20T07:19:38;9.05;;;3.63;;
3307;SDS011;1666;48.898;9.182;2022-09-20T07:22:10;7.55;;;3.05;;
3307;SDS011;1666;48.898;9.182;2022-09-20T07:24:40;10.95;;;3.60;;
3307;SDS011;1666;48.898;9.182;2022-09-20T07:27:10;10.00;;;3.75;;
3307;SDS011;1666;48.898;9.182;2022-09-20T07:29:40;8.98;;;3.40;;
3307;SDS011;1666;48.898;9.182;2022-09-20T07:32:11;9.73;;;3.47;;
3307;SDS011;1666;48.898;9.182;2022-09-20T07:34:42;11.07;;;3.75;;
3307;SDS011;1666;48.898;9.182;2022-09-20T07:37:15;13.95;;;4.13;;
3307;SDS011;1666;48.898;9.182;2022-09-20T07:39:45;12.35;;;4.68;;
3307;SDS011;1666;48.898;9.182;2022-09-20T07:42:15;8.57;;;3.55;;
3307;SDS011;1666;48.898;9.182;2022-09-20T07:44:45;8.50;;;4.03;;
3307;SDS011;1666;48.898;9.182;2022-09-20T07:47:16;7.57;;;3.30;;
3307;SDS011;1666;48.898;9.182;2022-09-20T07:49:46;10.35;;;3.63;;
3307;SDS011;1666;48.898;9.182;2022-09-20T07:52:19;8.15;;;3.60;;
3307;SDS011;1666;48.898;9.182;2022-09-20T07:54:49;6.63;;;3.58;;
3307;SDS011;1666;48.898;9.182;2022-09-20T07:57:19;10.48;;;3.63;;
3307;SDS011;1666;48.898;9.182;2022-09-20T07:59:48;9.75;;;3.35;;
3307;SDS011;1666;48.898;9.182;2022-09-20T08:02:18;8.25;;;3.03;;
3307;SDS011;1666;48.898;9.182;2022-09-20T08:04:48;11.68;;;3.60;;
3307;SDS011;1666;48.898;9.182;2022-09-20T08:07:20;7.93;;;2.67;;
3307;SDS011;1666;48.898;9.182;2022-09-20T08:09:50;8.50;;;2.25;;
3307;SDS011;1666;48.898;9.182;2022-09-20T08:12:20;7.18;;;2.30;;
3307;SDS011;1666;48.898;9.182;2022-09-20T08:15:10;12.48;;;2.92;;
3307;SDS011;1666;48.898;9.182;2022-09-20T08:17:39;5.80;;;2.08;;
3307;SDS011;1666;48.898;9.182;2022-09-20T08:20:09;5.32;;;2.22;;
3307;SDS011;1666;48.898;9.182;2022-09-20T08:22:42;5.30;;;2.90;;
3307;SDS011;1666;48.898;9.182;2022-09-20T08:25:31;9.10;;;2.90;;
3307;SDS011;1666;48.898;9.182;2022-09-20T08:28:01;8.90;;;2.67;;
3307;SDS011;1666;48.898;9.182;2022-09-20T08:30:31;6.28;;;2.33;;
3307;SDS011;1666;48.898;9.182;2022-09-20T08:33:02;6.97;;;2.80;;
3307;SDS011;1666;48.898;9.182;2022-09-20T08:35:33;14.45;;;2.80;;
3307;SDS011;1666;48.898;9.182;2022-09-20T08:38:06;7.95;;;2.28;;
3307;SDS011;1666;48.898;9.182;2022-09-20T08:40:58;7.55;;;2.20;;
3307;SDS011;1666;48.898;9.182;2022-09-20T08:43:34;7.20;;;2.03;;
3307;SDS011;1666;48.898;9.182;2022-09-20T08:46:12;10.15;;;2.42;;
3307;SDS011;1666;48.898;9.182;2022-09-20T08:48:49;6.30;;;1.67;;
3307;SDS011;1666;48.898;9.182;2022-09-20T08:51:20;13.95;;;1.85;;
3307;SDS011;1666;48.898;9.182;2022-09-20T08:53:56;7.20;;;2.50;;
3307;SDS011;1666;48.898;9.182;2022-09-20T08:56:28;8.15;;;1.85;;
3307;SDS011;1666;48.898;9.182;2022-09-20T08:59:01;6.15;;;1.83;;
3307;SDS011;1666;48.898;9.182;2022-09-20T09:01:31;8.50;;;1.80;;
3307;SDS011;1666;48.898;9.182;2022-09-20T09:04:06;6.13;;;1.60;;
3307;SDS011;1666;48.898;9.182;2022-09-20T09:06:42;10.80;;;2.05;;
3307;SDS011;1666;48.898;9.182;2022-09-20T09:09:16;6.63;;;1.90;;
3307;SDS011;1666;48.898;9.182;2022-09-20T09:11:49;3.97;;;1.95;;
3307;SDS011;1666;48.898;9.182;2022-09-20T09:14:23;7.13;;;1.80;;
3307;SDS011;1666;48.898;9.182;2022-09-20T09:17:08;8.98;;;1.75;;
3307;SDS011;1666;48.898;9.182;2022-09-20T09:19:42;4.68;;;1.67;;
3307;SDS011;1666;48.898;9.182;2022-09-20T09:22:16;4.45;;;1.88;;
3307;SDS011;1666;48.898;9.182;2022-09-20T09:25:18;7.13;;;1.58;;
3307;SDS011;1666;48.898;9.182;2022-09-20T09:27:51;8.57;;;1.88;;
3307;SDS011;1666;48.898;9.182;2022-09-20T09:30:25;9.65;;;1.65;;
3307;SDS011;1666;48.898;9.182;2022-09-20T09:35:52;4.15;;;1.50;;
3307;SDS011;1666;48.898;9.182;2022-09-20T09:38:25;6.57;;;1.80;;
3307;SDS011;1666;48.898;9.182;2022-09-20T09:40:59;3.92;;;1.50;;
3307;SDS011;1666;48.898;9.182;2022-09-20T09:43:31;4.53;;;1.23;;
3307;SDS011;1666;48.898;9.182;2022-09-20T09:46:15;6.25;;;2.15;;
3307;SDS011;1666;48.898;9.182;2022-09-20T09:48:47;4.22;;;1.33;;
3307;SDS011;1666;48.898;9.182;2022-09-20T09:51:37;9.88;;;1.70;;
3307;SDS011;1666;48.898;9.182;2022-09-20T09:54:08;7.60;;;1.50;;
3307;SDS011;1666;48.898;9.182;2022-09-20T09:56:51;8.68;;;1.40;;
3307;SDS011;1666;48.898;9.182;2022-09-20T09:59:40;4.90;;;1.27;;
3307;SDS011;1666;48.898;9.182;2022-09-20T10:02:30;6.15;;;1.50;;
3307;SDS011;1666;48.898;9.182;2022-09-20T10:05:17;4.93;;;1.40;;
3307;SDS011;1666;48.898;9.182;2022-09-20T10:07:54;4.90;;;1.33;;
3307;SDS011;1666;48.898;9.182;2022-09-20T10:10:32;4.72;;;1.40;;
3307;SDS011;1666;48.898;9.182;2022-09-20T10:13:14;7.20;;;1.58;;
3307;SDS011;1666;48.898;9.182;2022-09-20T10:15:53;7.30;;;2.20;;
3307;SDS011;1666;48.898;9.182;2022-09-20T10:18:31;5.45;;;1.52;;
3307;SDS011;1666;48.898;9.182;2022-09-20T10:21:09;7.32;;;2.05;;
3307;SDS011;1666;48.898;9.182;2022-09-20T10:23:57;9.52;;;1.65;;
3307;SDS011;1666;48.898;9.182;2022-09-20T10:29:40;11.75;;;1.90;;
3307;SDS011;1666;48.898;9.182;2022-09-20T10:32:26;5.47;;;1.20;;
3307;SDS011;1666;48.898;9.182;2022-09-20T10:35:12;5.03;;;1.65;;
3307;SDS011;1666;48.898;9.182;2022-09-20T10:37:53;6.30;;;1.00;;
3307;SDS011;1666;48.898;9.182;2022-09-20T10:40:54;3.47;;;1.25;;
3307;SDS011;1666;48.898;9.182;2022-09-20T10:43:56;3.58;;;1.50;;
3307;SDS011;1666;48.898;9.182;2022-09-20T10:46:39;3.92;;;1.50;;
3307;SDS011;1666;48.898;9.182;2022-09-20T10:49:19;6.15;;;1.67;;
3307;SDS011;1666;48.898;9.182;2022-09-20T10:55:01;5.13;;;1.63;;
3307;SDS011;1666;48.898;9.182;2022-09-20T10:57:44;7.68;;;1.60;;
3307;SDS011;1666;48.898;9.182;2022-09-20T11:00:22;3.63;;;1.70;;
3307;SDS011;1666;48.898;9.182;2022-09-20T11:03:05;6.07;;;1.85;;
3307;SDS011;1666;48.898;9.182;2022-09-20T11:05:45;6.10;;;2.28;;
3307;SDS011;1666;48.898;9.182;2022-09-20T11:08:27;4.57;;;1.50;;
3307;SDS011;1666;48.898;9.182;2022-09-20T11:11:04;5.97;;;1.35;;
3307;SDS011;1666;48.898;9.182;2022-09-20T11:13:39;5.88;;;1.50;;
3307;SDS011;1666;48.898;9.182;2022-09-20T11:16:15;8.18;;;1.80;;
3307;SDS011;1666;48.898;9.182;2022-09-20T11:18:53;4.05;;;1.70;;
3307;SDS011;1666;48.898;9.182;2022-09-20T11:21:27;9.05;;;2.00;;
3307;SDS011;1666;48.898;9.182;2022-09-20T11:24:03;5.80;;;1.80;;
3307;SDS011;1666;48.898;9.182;2022-09-20T11:26:43;4.80;;;1.58;;
3307;SDS011;1666;48.898;9.182;2022-09-20T11:29:19;6.78;;;1.90;;
3307;SDS011;1666;48.898;9.182;2022-09-20T11:31:54;5.53;;;1.80;;
3307;SDS011;1666;48.898;9.182;2022-09-20T11:34:35;6.13;;;2.03;;
3307;SDS011;1666;48.898;9.182;2022-09-20T11:37:11;7.70;;;2.17;;
3307;SDS011;1666;48.898;9.182;2022-09-20T11:39:41;5.30;;;1.88;;
3307;SDS011;1666;48.898;9.182;2022-09-20T11:42:16;5.55;;;2.05;;
3307;SDS011;1666;48.898;9.182;2022-09-20T11:44:48;7.75;;;1.98;;
3307;SDS011;1666;48.898;9.182;2022-09-20T11:47:19;8.20;;;1.80;;
3307;SDS011;1666;48.898;9.182;2022-09-20T11:53:38;8.18;;;2.33;;
3307;SDS011;1666;48.898;9.182;2022-09-20T11:56:20;3.83;;;1.80;;
3307;SDS011;1666;48.898;9.182;2022-09-20T11:58:52;5.18;;;1.73;;
3307;SDS011;1666;48.898;9.182;2022-09-20T12:01:26;8.20;;;1.98;;
3307;SDS011;1666;48.898;9.182;2022-09-20T12:03:59;5.07;;;2.13;;
3307;SDS011;1666;48.898;9.182;2022-09-20T12:06:55;8.77;;;3.08;;
3307;SDS011;1666;48.898;9.182;2022-09-20T12:09:38;6.93;;;1.85;;
3307;SDS011;1666;48.898;9.182;2022-09-20T12:12:15;4.60;;;1.70;;
3307;SDS011;1666;48.898;9.182;2022-09-20T12:14:53;4.70;;;1.77;;
3307;SDS011;1666;48.898;9.182;2022-09-20T12:23:45;6.30;;;1.80;;
3307;SDS011;1666;48.898;9.182;2022-09-20T12:26:41;5.20;;;2.10;;
3307;SDS011;1666;48.898;9.182;2022-09-20T12:38:36;4.95;;;1.50;;
3307;SDS011;1666;48.898;9.182;2022-09-20T12:41:11;5.18;;;1.50;;
3307;SDS011;1666;48.898;9.182;2022-09-20T12:43:57;5.30;;;1.60;;
3307;SDS011;1666;48.898;9.182;2022-09-20T12:46:39;3.72;;;1.38;;
3307;SDS011;1666;48.898;9.182;2022-09-20T12:49:18;5.95;;;1.83;;
3307;SDS011;1666;48.898;9.182;2022-09-20T12:52:12;9.95;;;2.10;;
3307;SDS011;1666;48.898;9.182;2022-09-20T12:55:33;4.03;;;1.42;;
3307;SDS011;1666;48.898;9.182;2022-09-20T12:58:18;8.80;;;2.38;;
3307;SDS011;1666;48.898;9.182;2022-09-20T13:03:59;5.88;;;1.75;;
3307;SDS011;1666;48.898;9.182;2022-09-20T13:10:22;5.28;;;1.83;;
3307;SDS011;1666;48.898;9.182;2022-09-20T13:12:58;3.35;;;1.60;;
3307;SDS011;1666;48.898;9.182;2022-09-20T13:15:39;3.95;;;1.52;;
3307;SDS011;1666;48.898;9.182;2022-09-20T13:18:10;2.08;;;1.17;;
3307;SDS011;1666;48.898;9.182;2022-09-20T13:20:45;5.95;;;1.98;;
3307;SDS011;1666;48.898;9.182;2022-09-20T13:25:48;3.78;;;1.65;;
3307;SDS011;1666;48.898;9.182;2022-09-20T13:28:27;3.33;;;1.70;;
3307;SDS011;1666;48.898;9.182;2022-09-20T13:33:51;3.95;;;1.40;;
3307;SDS011;1666;48.898;9.182;2022-09-20T13:36:27;5.22;;;2.00;;
3307;SDS011;1666;48.898;9.182;2022-09-20T13:38:58;4.68;;;1.73;;
3307;SDS011;1666;48.898;9.182;2022-09-20T13:41:28;4.15;;;1.70;;
3307;SDS011;1666;48.898;9.182;2022-09-20T13:44:00;5.88;;;2.03;;
3307;SDS011;1666;48.898;9.182;2022-09-20T13:46:31;7.63;;;1.98;;
3307;SDS011;1666;48.898;9.182;2022-09-20T13:49:14;6.60;;;2.38;;
3307;SDS011;1666;48.898;9.182;2022-09-20T13:51:51;6.63;;;2.63;;
3307;SDS011;1666;48.898;9.182;2022-09-20T13:54:25;4.15;;;1.70;;
3307;SDS011;1666;48.898;9.182;2022-09-20T13:56:57;7.75;;;1.95;;
3307;SDS011;1666;48.898;9.182;2022-09-20T13:59:30;8.70;;;1.95;;
3307;SDS011;1666;48.898;9.182;2022-09-20T14:02:03;6.45;;;1.88;;
3307;SDS011;1666;48.898;9.182;2022-09-20T14:04:33;5.13;;;2.03;;
3307;SDS011;1666;48.898;9.182;2022-09-20T14:07:07;12.20;;;2.15;;
3307;SDS011;1666;48.898;9.182;2022-09-20T14:09:38;2.55;;;1.73;;
3307;SDS011;1666;48.898;9.182;2022-09-20T14:12:08;8.63;;;2.25;;
3307;SDS011;1666;48.898;9.182;2022-09-20T14:14:40;6.63;;;1.80;;
3307;SDS011;1666;48.898;9.182;2022-09-20T14:17:12;4.00;;;1.63;;
3307;SDS011;1666;48.898;9.182;2022-09-20T14:22:21;8.85;;;2.03;;
3307;SDS011;1666;48.898;9.182;2022-09-20T14:24:57;4.63;;;1.77;;
3307;SDS011;1666;48.898;9.182;2022-09-20T14:27:29;3.78;;;1.60;;
3307;SDS011;1666;48.898;9.182;2022-09-20T14:29:59;5.63;;;1.63;;
3307;SDS011;1666;48.898;9.182;2022-09-20T14:32:34;4.70;;;1.92;;
3307;SDS011;1666;48.898;9.182;2022-09-20T14:35:11;4.68;;;1.88;;
3307;SDS011;1666;48.898;9.182;2022-09-20T14:37:47;3.47;;;1.70;;
3307;SDS011;1666;48.898;9.182;2022-09-20T14:40:20;5.32;;;1.90;;
3307;SDS011;1666;48.898;9.182;2022-09-20T14:42:54;3.15;;;1.92;;
3307;SDS011;1666;48.898;9.182;2022-09-20T14:45:27;6.53;;;2.08;;
3307;SDS011;1666;48.898;9.182;2022-09-20T14:48:00;4.63;;;1.70;;
3307;SDS011;1666;48.898;9.182;2022-09-20T14:50:37;3.22;;;1.95;;
3307;SDS011;1666;48.898;9.182;2022-09-20T14:56:08;2.20;;;1.50;;
3307;SDS011;1666;48.898;9.182;2022-09-20T15:01:32;7.07;;;2.17;;
3307;SDS011;1666;48.898;9.182;2022-09-20T15:04:04;4.57;;;1.90;;
3307;SDS011;1666;48.898;9.182;2022-09-20T15:06:36;4.72;;;1.83;;
3307;SDS011;1666;48.898;9.182;2022-09-20T15:09:11;3.53;;;1.73;;
3307;SDS011;1666;48.898;9.182;2022-09-20T15:11:42;3.95;;;2.10;;
3307;SDS011;1666;48.898;9.182;2022-09-20T15:14:22;2.33;;;1.85;;
3307;SDS011;1666;48.898;9.182;2022-09-20T15:16:52;2.38;;;1.80;;
3307;SDS011;1666;48.898;9.182;2022-09-20T15:19:22;4.55;;;1.90;;
3307;SDS011;1666;48.898;9.182;2022-09-20T15:21:52;2.65;;;2.17;;
3307;SDS011;1666;48.898;9.182;2022-09-20T15:24:22;2.80;;;2.00;;
3307;SDS011;1666;48.898;9.182;2022-09-20T15:26:52;4.50;;;1.85;;
3307;SDS011;1666;48.898;9.182;2022-09-20T15:29:24;5.50;;;1.73;;
3307;SDS011;1666;48.898;9.182;2022-09-20T15:31:54;3.45;;;1.90;;
3307;SDS011;1666;48.898;9.182;2022-09-20T15:34:24;2.33;;;1.40;;
3307;SDS011;1666;48.898;9.182;2022-09-20T15:36:54;4.45;;;1.38;;
3307;SDS011;1666;48.898;9.182;2022-09-20T15:39:23;1.90;;;1.42;;
3307;SDS011;1666;48.898;9.182;2022-09-20T15:41:53;3.50;;;1.85;;
3307;SDS011;1666;48.898;9.182;2022-09-20T15:44:26;2.97;;;1.60;;
3307;SDS011;1666;48.898;9.182;2022-09-20T15:46:59;1.98;;;1.38;;
3307;SDS011;1666;48.898;9.182;2022-09-20T15:49:29;3.50;;;1.42;;
3307;SDS011;1666;48.898;9.182;2022-09-20T15:52:00;2.53;;;1.13;;
3307;SDS011;1666;48.898;9.182;2022-09-20T15:54:30;1.45;;;1.02;;
3307;SDS011;1666;48.898;9.182;2022-09-20T15:57:02;2.00;;;1.20;;
3307;SDS011;1666;48.898;9.182;2022-09-20T15:59:35;1.85;;;1.40;;
3307;SDS011;1666;48.898;9.182;2022-09-20T16:02:05;3.78;;;1.40;;
3307;SDS011;1666;48.898;9.182;2022-09-20T16:04:38;3.28;;;1.48;;
3307;SDS011;1666;48.898;9.182;2022-09-20T16:07:08;4.53;;;1.65;;
3307;SDS011;1666;48.898;9.182;2022-09-20T16:09:37;3.83;;;1.58;;
3307;SDS011;1666;48.898;9.182;2022-09-20T16:12:08;3.05;;;1.60;;
3307;SDS011;1666;48.898;9.182;2022-09-20T16:14:40;4.47;;;2.00;;
3307;SDS011;1666;48.898;9.182;2022-09-20T16:17:10;3.85;;;1.80;;
3307;SDS011;1666;48.898;9.182;2022-09-20T16:19:39;3.95;;;1.63;;
3307;SDS011;1666;48.898;9.182;2022-09-20T16:22:07;4.97;;;1.70;;
3307;SDS011;1666;48.898;9.182;2022-09-20T16:24:37;4.93;;;1.98;;
3307;SDS011;1666;48.898;9.182;2022-09-20T16:27:08;6.35;;;1.70;;
3307;SDS011;1666;48.898;9.182;2022-09-20T16:29:40;5.60;;;2.10;;
3307;SDS011;1666;48.898;9.182;2022-09-20T16:32:10;5.50;;;2.00;;
3307;SDS011;1666;48.898;9.182;2022-09-20T16:34:40;4.15;;;2.08;;
3307;SDS011;1666;48.898;9.182;2022-09-20T16:37:11;7.90;;;1.98;;
3307;SDS011;1666;48.898;9.182;2022-09-20T16:39:42;3.58;;;1.65;;
3307;SDS011;1666;48.898;9.182;2022-09-20T16:42:12;4.13;;;2.10;;
3307;SDS011;1666;48.898;9.182;2022-09-20T16:44:44;5.20;;;2.08;;
3307;SDS011;1666;48.898;9.182;2022-09-20T16:47:14;5.70;;;2.33;;
3307;SDS011;1666;48.898;9.182;2022-09-20T16:49:47;3.53;;;1.90;;
3307;SDS011;1666;48.898;9.182;2022-09-20T16:52:19;4.10;;;2.05;;
3307;SDS011;1666;48.898;9.182;2022-09-20T16:54:51;4.03;;;1.98;;
3307;SDS011;1666;48.898;9.182;2022-09-20T16:57:22;5.43;;;2.45;;
3307;SDS011;1666;48.898;9.182;2022-09-20T16:59:54;5.93;;;2.00;;
3307;SDS011;1666;48.898;9.182;2022-09-20T17:02:24;4.32;;;2.10;;
3307;SDS011;1666;48.898;9.182;2022-09-20T17:04:54;2.72;;;1.85;;
3307;SDS011;1666;48.898;9.182;2022-09-20T17:07:24;3.97;;;2.00;;
3307;SDS011;1666;48.898;9.182;2022-09-20T17:09:53;3.72;;;2.15;;
3307;SDS011;1666;48.898;9.182;2022-09-20T17:12:26;3.65;;;2.17;;
3307;SDS011;1666;48.898;9.182;2022-09-20T17:15:01;8.13;;;2.17;;
3307;SDS011;1666;48.898;9.182;2022-09-20T17:17:31;6.15;;;2.28;;
3307;SDS011;1666;48.898;9.182;2022-09-20T17:20:02;5.70;;;2.33;;
3307;SDS011;1666;48.898;9.182;2022-09-20T17:22:33;5.40;;;2.50;;
3307;SDS011;1666;48.898;9.182;2022-09-20T17:25:03;5.85;;;2.35;;
3307;SDS011;1666;48.898;9.182;2022-09-20T17:27:34;2.85;;;1.90;;
3307;SDS011;1666;48.898;9.182;2022-09-20T17:30:08;3.10;;;2.22;;
3307;SDS011;1666;48.898;9.182;2022-09-20T17:32:38;7.38;;;2.50;;
3307;SDS011;1666;48.898;9.182;2022-09-20T17:35:15;5.18;;;2.47;;
3307;SDS011;1666;48.898;9.182;2022-09-20T17:37:45;6.20;;;2.70;;
3307;SDS011;1666;48.898;9.182;2022-09-20T17:40:15;4.70;;;2.50;;
3307;SDS011;1666;48.898;9.182;2022-09-20T17:42:45;6.88;;;2.17;;
3307;SDS011;1666;48.898;9.182;2022-09-20T17:45:18;6.05;;;2.35;;
3307;SDS011;1666;48.898;9.182;2022-09-20T17:47:48;4.30;;;2.53;;
3307;SDS011;1666;48.898;9.182;2022-09-20T17:50:18;6.80;;;2.47;;
3307;SDS011;1666;48.898;9.182;2022-09-20T17:52:47;6.78;;;3.00;;
3307;SDS011;1666;48.898;9.182;2022-09-20T17:55:19;4.45;;;2.42;;
3307;SDS011;1666;48.898;9.182;2022-09-20T17:57:51;5.50;;;2.83;;